Gallatin Field
KBZN : rendu visible

Aérodrome :











RETROUVEZ-NOUS SUR...

 
LOGIN :

S'inscrire | Disclaimer

   EN    FR    IT 

 









Légende :    VFR   VFR Marginal   IFR   IFR Intensif   IFR Très Intensif
Visi : 
Plafond : 
>= 8 km
>= 3000ft
5 à 8 km
1000 à 3000 ft
1500m à 5 km
500 à 1000 ft
800 à 1500m
200 à 500 ft
< 800m
< 200 ft
Symboles :   Orages  Brouillard  Fortes neiges  Fortes précipitations  Vent > 20 kt






- Altitude de l'aérodrome : 4473 ft
- Code IATA : BZN


KBZN - Gallatin Field

DERNIER METAR :
  • 170956Z AUTO 00000KT 10SM OVC060 01/M03 A3016 RMK AO2 SLP225 T00061028

METARs EXPIRÉS :
  • 170856Z AUTO 00000KT 10SM OVC065 01/M03 A3017 RMK AO2 SLP230 T00061028 58011
  • 170756Z 11004KT 10SM OVC070 01/M03 A3019 RMK AO2 SLP238 T00061033

TAF KBZN
Valide du 17 à 06h jusqu'au 18 à 12h UTC


170530Z 1706/1812 VRB06KT P6SM BKN100
PROB30 1715/1721 4SM -RA BKN035
FM172100 21012KT P6SM OVC080
FM180000 23010G18KT P6SM OVC060



MET'MAP, la Météo Aéronautique d'un coup d'oeil ! - Copyright ORBIFLY Décembre 2007 - Disclaimer

ORBIFLY MET'MAP TEAM :

Programmation & Développement : Alexandra Zaïnal
Conception & Développement : Baudouin d'Aumeries
Co-Programmation & Développement : Marc-Olivier Méhu
Soutien technique & logistique : Manuel Goepfert

Contact : metmap@orbifly.com




SOURCES & CREDITS :

   NOAA       Earth
Advisory